Woodstock, Maryland
Current Conditions -  °F | °C
As of 2:54 AM on Friday 28 Nov 2014 (Local Time) from KBWI Reporting Station
Scattered Clouds Scattered Clouds  
Wind Chill: 26°   Ceiling: Unl
Heat Index: 32°   Visibility: 10mi
Dew Point: 22°   Wind: 6mph
Humidity: 66%   Direction: 280°W
Pressure: 30.18"   Gusts: NA
Location:  39.33°N, 76.87°W
Report Text: KBWI 280754Z 28005KT 10SM FEW043 SCT090 00/M06 A3018 RMK AO2 SLP219 T00001056
Loading
Personal Weather Stations






























Interactive Weather Map New forecast layout! Learn more

10-Day Weather Forecast

Advertisements
Track Severe Weather on mobile